Satsuma, AL (36572)

2:46 PM CST on February 12, 2016 (GMT -0600)
APRSWXNET | | Change Station
CLOSE
Current Station
Personal Weather Station
Location: Chunchula, AL
Elevation: 269 ft
Nearby Weather Stations

Elev 269 ft 30.98 °N, 88.12 °W | Updated 18 minutes ago

Partly Cloudy
Partly Cloudy
73 °F
Feels Like 77 °F
N
4
Wind Variable Wind from NE
Gusts 8.0 mph

Today
High -- | Low -- °F
--% Chance of Precip.
Yesterday
High -- | Low -- °F
Precip. -- in
Pressure 30.16 in
Visibility 10.0 miles
Clouds Scattered Clouds 5000 ft
Heat Index 77 °F
Dew Point 54 °F
Humidity 51%
Rainfall in
Snow Depth Not available.
6:36 AM 5:37 PM
Waxing Crescent, 23% visible
METAR KBFM 121953Z 30012G16KT 10SM SCT050 24/12 A3016 RMK AO2 SLP211 T02440117
Pressure 30.16 in
Visibility 10.0 miles
Clouds Scattered Clouds 5000 ft
Heat Index 77 °F
Dew Point 54 °F
Humidity 51%
Rainfall in
Snow Depth Not available.
6:36 AM 5:37 PM
Waxing Crescent, 23% visible
METAR KBFM 121953Z 30012G16KT 10SM SCT050 24/12 A3016 RMK AO2 SLP211 T02440117

10-Day Weather Forecast

Almanac

Astronomy

Feb. 12, 2016 Rise Set
Actual Time
Civil Twilight
Nautical Twilight
Astronomical Twilight
Moon
Length of Visible Light
Length of Day
Tomorrow will be .
, % of the Moon is Illuminated

Today's Extremes

State Highs State Lows

Community

WunderPhotos

Upload Photos

1,892,389 photos uploaded!

WunderBlog® & News

Nearby

Air Quality

  Air Quality AQ Index Pollutant
Not available.

Snow Depth

Station Depth Elevation

Earthquake Activity

City Distance Mag. Time & Date
Minimum magnitude displayed is 2.5.

Coastal Water Temperatures

Place Temperature

Stations

Nearby Weather Stations

Station Location Temp. Windchill Dew Point Humidity Wind Precip. Elev Updated Type
                   

Watches & Warnings

There are currently no watches in effect.